Time;durP1;ratioP1;P1;durP2;ratioP2;P2;SDS_P1;SDS_P2;PMS_P1;PMS_P2;Temp;Humidity;BMP_temperature;BMP_pressure;BME280_temperature;BME280_humidity;BME280_pressure;Samples;Min_cycle;Max_cycle;Signal;HPM_P1;HPM_P2
2021/04/28 00:03:49;;;;;;;14.00;6.20;;;;;;;7.16;35.42;97057.06;10473267;28;20036;-75
2021/04/28 00:09:10;;;;;;;9.07;6.03;;;;;;;7.03;35.47;97052.69;10455890;28;20048;-75
2021/04/28 00:14:30;;;;;;;12.48;5.50;;;;;;;6.89;35.61;97046.19;10471717;28;20395;-75
2021/04/28 00:19:51;;;;;;;9.77;5.28;;;;;;;6.80;35.67;97028.22;10471622;28;20044;-74
2021/04/28 00:25:16;;;;;;;9.10;5.47;;;;;;;6.76;35.82;97035.56;10443773;28;20049;-75
2021/04/28 00:30:38;;;;;;;13.77;5.47;;;;;;;6.68;36.41;97030.16;10471113;28;20067;-74
2021/04/28 00:35:58;;;;;;;9.65;5.90;;;;;;;6.64;36.28;97029.13;10471015;28;20476;-75
2021/04/28 00:41:19;;;;;;;11.55;5.82;;;;;;;6.58;36.50;97030.16;10470272;28;20128;-75
2021/04/28 00:46:40;;;;;;;11.73;5.50;;;;;;;6.55;36.43;97016.72;10470210;28;20048;-75
2021/04/28 00:52:02;;;;;;;9.80;5.13;;;;;;;6.48;36.63;97012.81;10456491;28;20399;-75
2021/04/28 00:57:23;;;;;;;10.40;5.68;;;;;;;6.40;36.42;97011.50;10470238;28;20464;-75
2021/04/28 01:02:44;;;;;;;10.57;5.43;;;;;;;6.35;37.14;97004.91;10469544;28;20090;-74
2021/04/28 01:08:05;;;;;;;14.18;5.25;;;;;;;6.28;37.33;96997.50;10470082;28;20102;-75
2021/04/28 01:13:26;;;;;;;8.80;5.40;;;;;;;6.26;37.20;96989.75;10442025;28;20045;-75
2021/04/28 01:18:47;;;;;;;9.23;5.68;;;;;;;6.24;37.00;96995.16;10455695;28;20040;-75
2021/04/28 01:24:11;;;;;;;10.35;5.50;;;;;;;6.15;37.69;96984.78;10470198;28;20056;-74
2021/04/28 01:29:32;;;;;;;14.30;6.10;;;;;;;6.09;37.24;96986.41;10469402;28;20040;-75
2021/04/28 01:34:52;;;;;;;9.10;6.35;;;;;;;6.00;37.66;96988.59;10469162;28;20403;-75
2021/04/28 01:40:14;;;;;;;10.07;5.35;;;;;;;5.91;37.53;96983.06;10469060;28;20064;-74
2021/04/28 01:45:35;;;;;;;9.95;5.85;;;;;;;5.81;38.36;96982.28;10469178;28;20078;-75
2021/04/28 01:50:56;;;;;;;9.63;5.68;;;;;;;5.65;38.61;96977.00;10441231;28;20491;-74
2021/04/28 01:56:17;;;;;;;10.18;5.43;;;;;;;5.58;38.57;96969.56;10461683;28;20041;-75
2021/04/28 02:01:52;;;;;;;8.68;5.72;;;;;;;5.51;38.88;96964.16;10465383;28;20529;-75
2021/04/28 02:07:16;;;;;;;12.27;6.10;;;;;;;5.46;39.12;96954.81;10477874;28;20106;-75
2021/04/28 02:12:37;;;;;;;10.20;5.60;;;;;;;5.41;39.31;96959.34;10476292;28;20369;-74
2021/04/28 02:18:01;;;;;;;15.60;6.07;;;;;;;5.34;39.05;96956.69;10476490;28;20040;-74
2021/04/28 02:23:22;;;;;;;12.98;5.90;;;;;;;5.24;39.58;96956.66;10476459;28;20055;-75
2021/04/28 02:28:43;;;;;;;9.75;6.20;;;;;;;5.16;39.72;96956.03;10476019;28;20045;-74
2021/04/28 02:34:05;;;;;;;9.85;5.95;;;;;;;5.12;39.97;96948.19;10462086;28;20044;-75
2021/04/28 02:39:52;;;;;;;9.90;6.03;;;;;;;5.12;40.58;96944.69;10480796;28;20102;-75
2021/04/28 02:45:19;;;;;;;10.35;5.88;;;;;;;5.05;40.57;96929.66;10475216;28;20128;-75
2021/04/28 02:50:41;;;;;;;8.77;5.55;;;;;;;5.02;40.62;96932.84;10461881;28;20434;-74
2021/04/28 02:56:07;;;;;;;13.13;5.57;;;;;;;5.02;40.16;96924.53;10462279;28;20048;-75
2021/04/28 03:01:27;;;;;;;10.52;5.90;;;;;;;5.04;41.10;96927.47;10460870;28;20067;-74
2021/04/28 03:06:47;;;;;;;8.77;5.72;;;;;;;5.03;40.88;96926.75;10473020;28;20052;-74
2021/04/28 03:12:11;;;;;;;10.32;5.85;;;;;;;5.00;40.78;96925.13;10474214;28;20059;-74
2021/04/28 03:17:38;;;;;;;11.48;5.25;;;;;;;5.03;40.79;96921.22;10462188;28;20102;-75
2021/04/28 03:23:03;;;;;;;11.60;5.28;;;;;;;5.03;40.71;96920.50;10460897;28;20119;-74
2021/04/28 03:28:24;;;;;;;10.57;6.10;;;;;;;5.03;41.17;96931.56;10473627;28;20041;-74
2021/04/28 03:33:46;;;;;;;10.20;6.00;;;;;;;5.05;41.30;96928.94;10473583;28;20037;-75
2021/04/28 03:39:07;;;;;;;11.55;6.20;;;;;;;5.03;41.01;96926.03;10459691;28;20063;-75
2021/04/28 03:44:29;;;;;;;10.80;5.63;;;;;;;5.05;41.58;96923.41;10473327;28;20045;-74
2021/04/28 03:49:51;;;;;;;10.32;5.95;;;;;;;5.07;40.96;96926.31;10473195;28;20041;-74
2021/04/28 03:55:12;;;;;;;9.00;5.68;;;;;;;5.08;41.15;96916.69;10472376;28;20086;-75
2021/04/28 04:00:33;;;;;;;9.18;5.80;;;;;;;5.14;41.18;96925.47;10459081;28;20052;-74
2021/04/28 04:06:07;;;;;;;13.47;6.83;;;;;;;5.24;40.90;96928.25;10473808;28;20056;-76
2021/04/28 04:11:34;;;;;;;12.88;6.30;;;;;;;5.31;41.19;96925.38;10473277;28;20290;-74
2021/04/28 04:16:56;;;;;;;10.38;5.93;;;;;;;5.45;41.03;96926.41;10471985;28;20384;-75
2021/04/28 04:22:17;;;;;;;15.02;6.35;;;;;;;5.57;41.26;96936.91;10457542;28;20055;-75
2021/04/28 04:27:50;;;;;;;11.57;6.30;;;;;;;5.72;40.92;96942.19;10472590;28;20040;-75
2021/04/28 04:33:32;;;;;;;15.65;6.93;;;;;;;5.96;40.75;96943.97;10477002;28;20037;-74
2021/04/28 04:39:11;;;;;;;12.90;6.53;;;;;;;6.20;40.82;96947.75;10464534;28;20479;-75
2021/04/28 04:44:47;;;;;;;13.40;6.38;;;;;;;6.49;40.59;96953.28;10474524;28;20097;-75
2021/04/28 04:50:08;;;;;;;12.25;6.97;;;;;;;6.80;40.20;96952.59;10470846;28;20041;-75
2021/04/28 04:55:30;;;;;;;11.68;6.32;;;;;;;7.13;40.04;96961.81;10470578;28;20044;-74
2021/04/28 05:00:50;;;;;;;10.98;6.72;;;;;;;7.43;39.41;96954.06;10470367;28;20044;-74
2021/04/28 05:06:11;;;;;;;12.40;7.22;;;;;;;7.68;38.81;96951.59;10469950;28;20061;-74
2021/04/28 05:11:31;;;;;;;13.10;7.57;;;;;;;7.91;38.06;96950.25;10455907;28;20094;-74
2021/04/28 05:16:51;;;;;;;11.07;6.82;;;;;;;8.45;38.01;96949.56;10455709;28;20111;-75
2021/04/28 05:22:11;;;;;;;13.43;7.57;;;;;;;9.48;37.02;96952.34;10483366;28;20040;-75
2021/04/28 05:27:52;;;;;;;13.10;6.88;;;;;;;13.85;35.65;96944.97;10474522;28;20056;-75
2021/04/28 05:33:13;;;;;;;10.63;6.88;;;;;;;20.47;29.76;96945.31;10469304;28;20056;-75
2021/04/28 05:38:33;;;;;;;11.43;6.95;;;;;;;25.74;23.05;96945.56;10482976;28;20086;-76
2021/04/28 05:43:55;;;;;;;9.13;6.00;;;;;;;29.81;18.81;96943.28;10468713;28;20071;-76
2021/04/28 05:49:15;;;;;;;11.03;6.40;;;;;;;32.78;13.08;96945.41;10468826;28;20097;-75
2021/04/28 05:54:35;;;;;;;6.95;5.65;;;;;;;34.55;10.66;96951.28;10454410;28;20048;-75
2021/04/28 05:59:55;;;;;;;11.57;5.82;;;;;;;34.75;8.53;96940.34;10468572;28;20044;-74
2021/04/28 06:05:16;;;;;;;10.35;6.03;;;;;;;35.21;8.18;96947.06;10454424;28;20044;-76
2021/04/28 06:10:36;;;;;;;10.27;6.43;;;;;;;36.48;7.81;96939.16;10482191;28;20041;-77
2021/04/28 06:15:56;;;;;;;13.45;5.95;;;;;;;37.41;6.70;96933.06;10468277;28;20048;-74
2021/04/28 06:21:17;;;;;;;9.80;5.97;;;;;;;37.81;6.88;96939.63;10468400;28;20041;-75
2021/04/28 06:26:39;;;;;;;9.65;6.80;;;;;;;38.96;6.11;96936.84;10468030;28;20070;-75
2021/04/28 06:31:59;;;;;;;12.80;6.22;;;;;;;39.15;5.96;96934.28;10468272;28;20045;-76
2021/04/28 06:37:21;;;;;;;16.05;6.57;;;;;;;39.16;5.66;96934.97;10468144;28;20055;-80
2021/04/28 06:42:41;;;;;;;11.55;7.00;;;;;;;39.19;5.70;96942.09;10474656;28;20059;-75
2021/04/28 06:48:04;;;;;;;14.27;6.78;;;;;;;40.49;5.31;96933.31;10461144;28;20101;-76
2021/04/28 06:53:24;;;;;;;9.35;6.70;;;;;;;41.57;5.21;96935.53;10475400;28;20037;-74
2021/04/28 06:58:48;;;;;;;11.10;6.50;;;;;;;42.27;4.68;96940.13;10474737;28;20040;-74
2021/04/28 07:04:09;;;;;;;12.05;6.63;;;;;;;43.21;4.42;96939.75;10475384;28;20114;-76
2021/04/28 07:09:30;;;;;;;9.98;6.05;;;;;;;43.77;4.42;96936.22;10474538;28;20053;-77
2021/04/28 07:14:50;;;;;;;7.57;5.70;;;;;;;43.21;4.33;96933.88;10474547;28;20044;-76
2021/04/28 07:20:11;;;;;;;12.75;6.25;;;;;;;42.46;4.62;96933.63;10474069;28;20048;-76
2021/04/28 07:25:31;;;;;;;8.52;5.38;;;;;;;42.52;5.33;96930.25;10459937;28;20065;-76
2021/04/28 07:30:52;;;;;;;6.30;5.40;;;;;;;43.32;4.84;96939.66;10473546;28;20048;-76
2021/04/28 07:36:12;;;;;;;7.30;4.78;;;;;;;43.59;4.79;96941.97;10487382;28;20044;-77
2021/04/28 07:41:34;;;;;;;5.90;5.18;;;;;;;44.53;4.59;96935.22;10472965;28;20044;-76
2021/04/28 07:46:55;;;;;;;8.05;5.10;;;;;;;44.48;4.59;96939.31;10473294;28;20055;-77
2021/04/28 07:52:16;;;;;;;5.35;4.75;;;;;;;45.39;4.03;96939.84;10486094;28;20041;-76
2021/04/28 07:57:36;;;;;;;5.50;4.70;;;;;;;45.19;3.83;96935.69;10472745;28;20468;-77
2021/04/28 08:02:56;;;;;;;8.80;4.90;;;;;;;44.72;4.09;96940.28;10485985;28;20048;-77
2021/04/28 08:08:16;;;;;;;5.70;4.40;;;;;;;46.50;3.81;96929.34;10471962;28;20048;-74
2021/04/28 08:13:37;;;;;;;6.07;4.03;;;;;;;48.41;3.19;96936.53;10457698;28;20483;-76
2021/04/28 08:18:57;;;;;;;4.70;3.83;;;;;;;47.88;2.97;96927.56;10485539;28;20423;-76
2021/04/28 08:24:18;;;;;;;7.32;4.07;;;;;;;49.06;2.59;96941.22;10451442;28;20468;-78
2021/04/28 08:29:39;;;;;;;9.55;4.18;;;;;;;47.60;3.07;96931.00;10457574;28;20040;-77
2021/04/28 08:35:00;;;;;;;4.68;3.90;;;;;;;48.66;3.07;96934.84;10457610;28;20044;-76
2021/04/28 08:40:21;;;;;;;6.18;3.55;;;;;;;48.96;2.81;96934.72;10470778;28;20040;-77
2021/04/28 08:45:41;;;;;;;4.20;3.60;;;;;;;49.69;2.14;96938.41;10484514;28;20044;-77
2021/04/28 08:51:02;;;;;;;4.53;3.70;;;;;;;49.68;2.25;96934.06;10456554;28;20388;-78
2021/04/28 08:56:24;;;;;;;5.32;3.85;;;;;;;51.03;2.48;96934.59;10470288;28;20124;-76
2021/04/28 09:01:45;;;;;;;7.50;4.30;;;;;;;51.69;1.90;96917.53;10456255;28;20442;-77
2021/04/28 09:07:06;;;;;;;6.45;3.88;;;;;;;50.32;2.45;96916.25;10469603;28;20442;-78
2021/04/28 09:12:26;;;;;;;7.00;3.90;;;;;;;51.58;2.12;96913.66;10483849;28;20044;-76
2021/04/28 09:17:54;;;;;;;6.95;3.33;;;;;;;50.95;1.62;96906.47;10469549;28;20502;-78
2021/04/28 09:23:37;;;;;;;3.70;3.03;;;;;;;49.65;2.29;96908.50;10475578;28;20041;-76
2021/04/28 09:29:17;;;;;;;5.13;3.75;;;;;;;48.62;2.60;96905.59;10486489;28;20102;-76
2021/04/28 09:34:40;;;;;;;4.40;3.53;;;;;;;49.11;2.89;96906.63;10455376;28;20541;-75
2021/04/28 09:40:00;;;;;;;6.47;4.57;;;;;;;48.09;2.69;96893.09;10469382;28;20407;-76
2021/04/28 09:45:50;;;;;;;4.30;3.90;;;;;;;48.49;2.64;96881.78;10454185;28;20199;-75
2021/04/28 09:51:11;;;;;;;6.05;4.30;;;;;;;47.60;2.72;96885.97;10455251;28;20101;-78
2021/04/28 09:56:37;;;;;;;7.47;4.85;;;;;;;47.00;3.29;96875.38;10455095;28;20503;-78
2021/04/28 10:01:58;;;;;;;5.82;4.70;;;;;;;46.13;3.25;96863.41;10468490;28;20510;-76
2021/04/28 10:07:26;;;;;;;4.93;4.22;;;;;;;46.40;3.64;96858.75;10467905;28;20419;-78
2021/04/28 10:12:47;;;;;;;8.40;4.68;;;;;;;46.02;3.30;96857.69;10468943;28;20055;-77
2021/04/28 10:18:10;;;;;;;5.70;4.60;;;;;;;44.83;4.01;96855.47;10498387;28;20036;-78
2021/04/28 10:23:31;;;;;;;5.88;4.15;;;;;;;45.25;4.05;96849.75;10517717;28;20486;-75
2021/04/28 10:28:52;;;;;;;4.90;4.32;;;;;;;44.96;3.61;96845.63;10503591;28;20490;-77
2021/04/28 10:34:16;;;;;;;7.30;4.38;;;;;;;42.49;5.16;96853.47;10517041;28;20044;-77
2021/04/28 10:39:37;;;;;;;6.95;5.10;;;;;;;38.71;6.69;96841.38;10517401;28;20104;-75
2021/04/28 10:44:57;;;;;;;7.03;4.90;;;;;;;33.71;9.44;96835.13;10517144;28;20475;-77
2021/04/28 10:50:37;;;;;;;7.72;5.03;;;;;;;31.35;11.88;96828.59;10516967;28;20403;-75
2021/04/28 10:55:59;;;;;;;7.80;5.73;;;;;;;29.90;12.55;96831.63;10504320;28;20375;-76
2021/04/28 11:01:22;;;;;;;6.38;4.68;;;;;;;28.04;13.84;96822.31;10502674;28;20044;-75
2021/04/28 11:06:42;;;;;;;6.35;5.75;;;;;;;26.97;15.66;96819.44;10502530;28;20048;-75
2021/04/28 11:12:03;;;;;;;8.30;6.00;;;;;;;24.95;16.19;96812.34;10502360;28;20043;-76
2021/04/28 11:17:24;;;;;;;7.15;5.65;;;;;;;23.77;18.15;96815.34;10515835;28;20459;-76
2021/04/28 11:22:44;;;;;;;8.57;5.75;;;;;;;23.16;18.73;96805.94;10501325;28;20044;-75
2021/04/28 11:28:07;;;;;;;10.27;6.35;;;;;;;22.67;19.58;96802.84;10514400;28;20153;-79
2021/04/28 11:33:30;;;;;;;7.40;6.10;;;;;;;22.31;20.76;96809.75;10516017;28;20044;-79
2021/04/28 11:38:51;;;;;;;10.88;6.32;;;;;;;22.22;21.64;96799.75;10543091;28;20040;-76
2021/04/28 11:44:11;;;;;;;6.82;5.35;;;;;;;22.41;21.44;96784.25;10514828;28;20043;-75
2021/04/28 11:49:32;;;;;;;9.23;6.97;;;;;;;22.38;21.84;96794.16;10514703;28;20044;-78
2021/04/28 11:54:55;;;;;;;9.43;6.75;;;;;;;21.53;22.63;96790.66;10513931;28;20051;-77
2021/04/28 12:00:18;;;;;;;9.70;6.15;;;;;;;21.53;22.74;96784.97;10500000;28;20165;-76
2021/04/28 12:05:38;;;;;;;8.43;5.72;;;;;;;21.59;23.20;96777.22;10514245;28;20056;-75
2021/04/28 12:11:02;;;;;;;6.43;4.80;;;;;;;21.69;23.08;96762.38;10500770;28;20058;-76
2021/04/28 12:16:22;;;;;;;7.82;5.40;;;;;;;21.79;23.24;96753.22;10485533;28;20051;-75
2021/04/28 12:22:03;;;;;;;7.38;5.47;;;;;;;21.83;23.63;96754.00;10512971;28;20119;-76
2021/04/28 12:27:30;;;;;;;7.57;5.47;;;;;;;21.53;23.84;96748.06;10500490;28;20544;-75
2021/04/28 12:32:59;;;;;;;7.43;5.57;;;;;;;21.68;24.08;96743.91;10499385;28;20040;-75
2021/04/28 12:38:19;;;;;;;8.52;5.65;;;;;;;20.99;24.21;96760.97;10513369;28;20040;-75
2021/04/28 12:43:41;;;;;;;7.68;5.68;;;;;;;20.68;25.22;96740.06;10512438;28;20044;-75
2021/04/28 12:49:04;;;;;;;5.32;4.68;;;;;;;21.26;25.32;96727.94;10512491;28;20040;-76
2021/04/28 12:54:32;;;;;;;5.47;4.72;;;;;;;21.78;24.80;96735.47;10526276;28;20056;-75
2021/04/28 13:00:09;;;;;;;9.13;5.03;;;;;;;21.42;24.71;96722.44;10511778;28;20047;-76
2021/04/28 13:05:38;;;;;;;6.22;4.97;;;;;;;21.18;25.45;96725.00;10480050;28;20047;-77
2021/04/28 13:11:11;;;;;;;7.03;4.63;;;;;;;21.36;25.19;96708.16;10504807;28;20063;-77
2021/04/28 13:16:40;;;;;;;8.57;4.38;;;;;;;21.80;24.78;96704.25;10522740;28;20064;-76
2021/04/28 13:22:04;;;;;;;6.15;4.30;;;;;;;21.62;24.82;96701.28;10512740;28;20056;-76
2021/04/28 13:27:27;;;;;;;6.95;3.88;;;;;;;21.77;24.39;96704.94;10495092;28;20048;-77
2021/04/28 13:32:54;;;;;;;7.43;3.37;;;;;;;21.96;24.44;96675.25;10511375;28;20060;-76
2021/04/28 13:38:15;;;;;;;7.35;3.88;;;;;;;22.20;24.37;96680.38;10494334;28;20086;-77
2021/04/28 13:43:36;;;;;;;5.03;3.72;;;;;;;21.93;24.28;96676.66;10496652;28;20119;-76
2021/04/28 13:48:58;;;;;;;5.82;3.72;;;;;;;21.43;24.35;96672.03;10493381;28;20087;-75
2021/04/28 13:54:19;;;;;;;6.38;3.50;;;;;;;21.09;25.13;96666.75;10510286;28;20040;-76
2021/04/28 13:59:40;;;;;;;6.90;4.05;;;;;;;21.03;25.23;96658.88;10510319;28;20051;-75
2021/04/28 14:05:00;;;;;;;7.63;3.60;;;;;;;21.32;25.16;96653.47;10496088;28;20040;-75
2021/04/28 14:10:22;;;;;;;4.20;3.03;;;;;;;21.77;24.63;96643.16;10496510;28;20113;-76
2021/04/28 14:15:42;;;;;;;8.65;3.38;;;;;;;21.77;24.28;96648.84;10495696;28;20124;-75
2021/04/28 14:21:03;;;;;;;6.28;3.47;;;;;;;21.84;24.26;96638.25;10509566;28;20056;-75
2021/04/28 14:26:23;;;;;;;6.78;3.38;;;;;;;21.66;24.36;96641.69;10509323;28;20047;-75
2021/04/28 14:31:44;;;;;;;9.20;3.08;;;;;;;21.45;24.62;96637.28;10509665;28;20048;-75
2021/04/28 14:37:05;;;;;;;4.65;2.47;;;;;;;21.19;24.96;96635.63;10482148;28;20040;-74
2021/04/28 14:42:25;;;;;;;4.18;2.80;;;;;;;21.13;25.41;96624.22;10509527;28;20040;-74
2021/04/28 14:47:45;;;;;;;6.63;3.20;;;;;;;20.82;25.63;96635.28;10495327;28;20047;-74
2021/04/28 14:53:06;;;;;;;5.63;3.35;;;;;;;20.28;26.50;96636.13;10485389;28;20047;-75
2021/04/28 14:58:26;;;;;;;6.97;3.35;;;;;;;20.03;26.75;96625.88;10463591;28;20041;-74
2021/04/28 15:03:47;;;;;;;6.55;3.55;;;;;;;20.13;27.21;96614.66;10451670;28;20041;-74
2021/04/28 15:09:08;;;;;;;6.05;3.40;;;;;;;20.68;26.84;96615.31;10444347;28;20064;-74
2021/04/28 15:14:29;;;;;;;6.75;3.70;;;;;;;20.59;26.69;96608.13;10430034;28;20041;-73
2021/04/28 15:19:50;;;;;;;4.32;3.30;;;;;;;20.05;27.34;96597.56;10419490;28;20495;-74
2021/04/28 15:25:11;;;;;;;6.43;3.45;;;;;;;19.91;27.74;96614.41;10433108;28;20044;-73
2021/04/28 15:30:33;;;;;;;5.60;3.40;;;;;;;19.80;27.83;96604.34;10446246;28;20080;-74
2021/04/28 15:35:54;;;;;;;8.10;3.50;;;;;;;19.71;28.28;96598.56;10459968;28;20137;-75
2021/04/28 15:41:15;;;;;;;8.20;4.40;;;;;;;19.31;29.50;96609.28;10460840;28;20275;-75
2021/04/28 15:46:35;;;;;;;5.15;3.38;;;;;;;18.97;29.86;96593.19;10431982;28;20048;-75
2021/04/28 15:51:57;;;;;;;11.55;3.80;;;;;;;18.94;30.04;96588.91;10445431;28;20373;-75
2021/04/28 15:57:19;;;;;;;4.57;3.67;;;;;;;18.95;30.03;96581.84;10444792;28;20037;-77
2021/04/28 16:02:40;;;;;;;10.80;3.03;;;;;;;18.97;30.14;96586.81;10445049;28;20049;-75
2021/04/28 16:08:00;;;;;;;7.15;3.90;;;;;;;18.89;30.98;96576.09;10467813;28;20048;-74
2021/04/28 16:13:21;;;;;;;9.00;3.65;;;;;;;18.76;30.89;96569.50;10457608;28;20044;-75
2021/04/28 16:18:41;;;;;;;5.38;3.97;;;;;;;18.71;30.78;96565.19;10457790;28;20044;-75
2021/04/28 16:24:01;;;;;;;10.35;4.30;;;;;;;19.02;30.78;96569.25;10471700;28;20533;-75
2021/04/28 16:29:22;;;;;;;7.63;3.10;;;;;;;19.37;30.15;96555.59;10485368;28;20542;-74
2021/04/28 16:34:42;;;;;;;6.28;3.88;;;;;;;19.30;30.24;96568.22;10473700;28;20095;-74
2021/04/28 16:40:04;;;;;;;6.75;3.97;;;;;;;19.06;30.88;96563.63;10462731;28;20049;-75
2021/04/28 16:45:25;;;;;;;6.68;3.53;;;;;;;18.81;31.09;96558.97;10470876;28;20123;-73
2021/04/28 16:50:46;;;;;;;5.90;3.17;;;;;;;18.57;31.52;96550.78;10470442;28;20101;-75
2021/04/28 16:56:06;;;;;;;5.43;3.15;;;;;;;18.42;31.83;96552.63;10464576;28;20437;-73
2021/04/28 17:01:27;;;;;;;7.38;3.70;;;;;;;18.12;32.95;96549.25;10470295;28;20043;-72
2021/04/28 17:06:47;;;;;;;6.88;3.65;;;;;;;17.82;33.13;96547.28;10469727;28;20053;-73
2021/04/28 17:12:08;;;;;;;7.95;3.38;;;;;;;17.59;33.74;96537.63;10469781;28;20431;-74
2021/04/28 17:17:28;;;;;;;13.05;3.70;;;;;;;17.38;34.22;96536.47;10469577;28;20094;-73
2021/04/28 17:22:49;;;;;;;5.68;3.35;;;;;;;17.23;34.56;96531.91;10469184;28;20491;-73
2021/04/28 17:28:10;;;;;;;7.25;3.50;;;;;;;17.08;34.99;96530.88;10455768;28;20085;-73
2021/04/28 17:33:31;;;;;;;5.15;3.08;;;;;;;16.98;34.97;96529.91;10455630;28;20052;-74
2021/04/28 17:38:52;;;;;;;6.50;3.33;;;;;;;16.83;35.58;96535.22;10469357;28;20048;-72
2021/04/28 17:44:13;;;;;;;6.85;2.92;;;;;;;16.68;36.11;96539.06;10469139;28;20068;-73
2021/04/28 17:49:34;;;;;;;7.10;3.30;;;;;;;16.53;36.55;96551.34;10483173;28;20047;-73
2021/04/28 17:54:55;;;;;;;8.98;3.15;;;;;;;16.46;36.82;96546.94;10468759;28;20475;-75
2021/04/28 18:00:17;;;;;;;8.05;3.15;;;;;;;16.35;36.82;96548.06;10455940;28;20041;-72
2021/04/28 18:05:38;;;;;;;6.78;3.05;;;;;;;16.21;37.68;96557.59;10438026;28;20124;-73
2021/04/28 18:10:59;;;;;;;9.43;3.38;;;;;;;16.12;37.85;96561.56;10413455;28;20119;-72
2021/04/28 18:16:22;;;;;;;7.60;2.80;;;;;;;15.97;37.94;96562.53;10414448;28;20092;-72
2021/04/28 18:21:43;;;;;;;5.85;2.70;;;;;;;15.82;39.16;96557.88;10413240;28;20056;-72
2021/04/28 18:27:04;;;;;;;8.68;3.60;;;;;;;15.67;39.21;96568.75;10399799;28;20388;-72
2021/04/28 18:32:25;;;;;;;8.85;3.30;;;;;;;15.50;39.72;96572.41;10426519;28;20041;-72
2021/04/28 18:37:46;;;;;;;7.30;2.90;;;;;;;15.36;39.80;96580.44;10461267;28;20044;-73
2021/04/28 18:43:07;;;;;;;8.25;4.07;;;;;;;15.24;40.49;96589.22;10434628;28;20049;-73
2021/04/28 18:48:27;;;;;;;4.70;2.97;;;;;;;15.11;40.86;96588.13;10420501;28;20045;-73
2021/04/28 18:53:50;;;;;;;8.25;3.30;;;;;;;15.01;41.06;96587.81;10421352;28;20494;-72
2021/04/28 18:59:10;;;;;;;7.95;4.22;;;;;;;14.90;41.80;96602.91;10419884;28;20496;-73
2021/04/28 19:04:31;;;;;;;9.18;3.47;;;;;;;14.78;42.03;96603.22;10420172;28;20037;-72
2021/04/28 19:09:52;;;;;;;8.07;3.70;;;;;;;14.72;42.33;96602.31;10419727;28;20484;-72
2021/04/28 19:15:15;;;;;;;7.85;3.78;;;;;;;14.62;42.40;96599.16;10419703;28;20041;-72
2021/04/28 19:20:36;;;;;;;4.45;3.05;;;;;;;14.55;42.99;96607.38;10419893;28;20060;-73
2021/04/28 19:25:56;;;;;;;7.82;3.63;;;;;;;14.47;43.70;96623.94;10418898;28;20480;-73
2021/04/28 19:31:18;;;;;;;6.03;3.75;;;;;;;14.37;43.88;96606.72;10418967;28;20041;-73
2021/04/28 19:36:40;;;;;;;6.20;3.50;;;;;;;14.31;43.71;96606.53;10418813;28;20041;-72
2021/04/28 19:42:00;;;;;;;7.28;3.40;;;;;;;14.20;44.17;96599.84;10418704;28;20542;-73
2021/04/28 19:47:22;;;;;;;7.43;3.75;;;;;;;14.12;44.59;96599.53;10444799;28;20052;-73
2021/04/28 19:53:03;;;;;;;10.52;3.40;;;;;;;14.03;44.92;96595.72;10431779;28;20045;-73
2021/04/28 19:58:23;;;;;;;11.07;3.80;;;;;;;13.97;45.46;96594.78;10308797;28;20540;-73
2021/04/28 20:03:44;;;;;;;4.95;3.22;;;;;;;13.85;45.22;96595.06;10305824;28;20055;-74
2021/04/28 20:09:04;;;;;;;9.45;3.70;;;;;;;13.74;45.81;96596.78;10318728;28;20128;-73
2021/04/28 20:14:25;;;;;;;7.70;3.65;;;;;;;13.64;46.39;96595.69;10305191;28;20481;-74
2021/04/28 20:19:45;;;;;;;5.63;3.67;;;;;;;13.59;46.52;96585.69;10304447;28;20046;-73
2021/04/28 20:25:07;;;;;;;5.78;3.53;;;;;;;13.51;47.00;96586.13;10318726;28;20058;-73
2021/04/28 20:30:27;;;;;;;6.88;3.60;;;;;;;13.45;47.49;96588.69;10331911;28;20441;-73
2021/04/28 20:35:47;;;;;;;10.65;3.42;;;;;;;13.37;47.30;96572.28;10318345;28;20468;-73
2021/04/28 20:41:08;;;;;;;4.82;3.20;;;;;;;13.27;47.91;96574.69;10304410;28;20117;-73
2021/04/28 20:46:28;;;;;;;6.35;3.38;;;;;;;13.17;47.88;96565.88;10304442;28;20066;-73
2021/04/28 20:51:49;;;;;;;6.45;3.55;;;;;;;13.10;48.40;96567.00;10304030;28;20042;-73
2021/04/28 20:57:09;;;;;;;4.60;3.20;;;;;;;13.03;48.96;96556.94;10303744;28;20053;-73
2021/04/28 21:02:29;;;;;;;6.28;3.38;;;;;;;12.99;48.96;96568.69;10317175;28;20050;-74
2021/04/28 21:07:50;;;;;;;6.80;3.28;;;;;;;12.90;49.06;96558.50;10316814;28;20061;-74
2021/04/28 21:13:11;;;;;;;5.80;3.50;;;;;;;12.82;49.63;96561.72;10316654;28;20094;-73
2021/04/28 21:18:32;;;;;;;6.25;3.42;;;;;;;12.76;49.79;96558.69;10303411;28;20108;-73
2021/04/28 21:23:52;;;;;;;5.43;3.13;;;;;;;12.67;50.39;96545.00;10316493;28;20054;-73
2021/04/28 21:29:12;;;;;;;3.97;2.95;;;;;;;12.68;50.17;96558.34;10316166;28;20482;-73
2021/04/28 21:34:32;;;;;;;5.40;3.05;;;;;;;12.68;50.51;96558.34;10316115;28;20125;-73
2021/04/28 21:39:53;;;;;;;4.53;2.95;;;;;;;12.65;50.43;96551.25;10403470;28;20049;-73
2021/04/28 21:45:14;;;;;;;4.82;2.60;;;;;;;12.61;50.75;96539.88;10427721;28;20056;-73
2021/04/28 21:50:35;;;;;;;4.68;3.13;;;;;;;12.59;50.71;96540.50;10400410;28;20392;-73
2021/04/28 21:55:55;;;;;;;6.25;3.40;;;;;;;12.57;51.13;96545.31;10427513;28;20041;-73
2021/04/28 22:01:15;;;;;;;6.05;3.45;;;;;;;12.47;51.89;96544.91;10413780;28;20503;-73
2021/04/28 22:06:36;;;;;;;5.32;2.88;;;;;;;12.38;52.20;96540.31;10413555;28;20516;-73
2021/04/28 22:11:57;;;;;;;7.82;3.50;;;;;;;12.36;52.06;96552.16;10432061;28;20487;-73
2021/04/28 22:17:18;;;;;;;4.30;3.25;;;;;;;12.31;52.26;96548.47;10435739;28;20045;-72
2021/04/28 22:22:38;;;;;;;4.57;3.10;;;;;;;12.19;52.72;96544.44;10435170;28;20045;-73
2021/04/28 22:27:58;;;;;;;4.18;3.08;;;;;;;12.09;53.34;96525.16;10421452;28;20381;-73
2021/04/28 22:33:20;;;;;;;5.18;2.95;;;;;;;11.99;53.58;96533.84;10435121;28;20045;-73
2021/04/28 22:38:40;;;;;;;5.15;3.13;;;;;;;11.91;53.78;96530.69;10434958;28;20052;-73
2021/04/28 22:44:01;;;;;;;6.38;2.90;;;;;;;11.85;53.64;96543.69;10420657;28;20045;-73
2021/04/28 22:49:21;;;;;;;5.43;3.33;;;;;;;11.80;54.37;96539.28;10448673;28;20037;-73
2021/04/28 22:54:41;;;;;;;8.70;3.65;;;;;;;11.68;54.65;96540.16;10420023;28;20496;-73
2021/04/28 23:00:11;;;;;;;5.70;2.80;;;;;;;11.61;54.64;96535.66;10433934;28;20495;-73
2021/04/28 23:05:32;;;;;;;6.80;2.78;;;;;;;11.56;54.74;96531.22;10434648;28;20045;-73
2021/04/28 23:10:52;;;;;;;4.28;2.80;;;;;;;11.53;55.05;96526.91;10447245;28;20400;-73
2021/04/28 23:16:12;;;;;;;7.18;3.38;;;;;;;11.48;54.85;96536.47;10433158;28;20045;-73
2021/04/28 23:21:33;;;;;;;7.25;3.55;;;;;;;11.46;55.21;96528.00;10419277;28;20045;-73
2021/04/28 23:26:53;;;;;;;4.65;3.33;;;;;;;11.46;55.13;96525.19;10432946;28;20037;-73
2021/04/28 23:32:13;;;;;;;4.63;3.50;;;;;;;11.38;55.33;96525.53;10432621;28;20045;-73
2021/04/28 23:37:34;;;;;;;5.07;3.85;;;;;;;11.35;55.39;96512.13;10446447;28;20045;-73
2021/04/28 23:42:54;;;;;;;5.15;3.53;;;;;;;11.29;56.09;96512.59;10446245;28;20049;-73
2021/04/28 23:48:14;;;;;;;5.75;3.65;;;;;;;11.25;55.44;96512.41;10432364;28;20041;-74
2021/04/28 23:53:36;;;;;;;7.65;4.05;;;;;;;11.17;55.55;96506.44;10432060;28;20056;-73
2021/04/28 23:58:56;;;;;;;6.00;3.60;;;;;;;11.13;56.07;96506.97;10445734;28;20476;-73
